Randolph, Ohio
Current Conditions -  °F | °C
As of 1:54 AM on Saturday 29 Nov 2014 (Local Time) from KAKR Reporting Station
Overcast Overcast  
Wind Chill: 23°   Ceiling: 6500
Heat Index: 31°   Visibility: 10mi
Dew Point: 20°   Wind: 8mph
Humidity: 64%   Direction: 180°S
Pressure: 30.11"   Gusts: NA
Location:  41.03°N, 81.25°W
Report Text: KAKR 290654Z AUTO 18007KT 10SM OVC065 M01/M07 A3011 RMK AO2 SLP206 T10061067 $
Loading
Personal Weather Stations






























Interactive Weather Map New forecast layout! Learn more

10-Day Weather Forecast

Advertisements
Track Severe Weather on mobile